sensor_id;sensor_type;location;lat;lon;timestamp;pressure;altitude;pressure_sealevel;temperature
20848;BMP180;10584;50.854;12.902;2023-03-18T00:05:15;97626.00;;;7.50
20848;BMP180;10584;50.854;12.902;2023-03-18T00:10:38;97629.00;;;7.50
20848;BMP180;10584;50.854;12.902;2023-03-18T00:16:01;97622.00;;;7.50
20848;BMP180;10584;50.854;12.902;2023-03-18T00:21:22;97619.00;;;7.40
20848;BMP180;10584;50.854;12.902;2023-03-18T00:26:44;97624.00;;;7.40
20848;BMP180;10584;50.854;12.902;2023-03-18T00:32:06;97622.00;;;7.30
20848;BMP180;10584;50.854;12.902;2023-03-18T00:37:29;97609.00;;;7.30
20848;BMP180;10584;50.854;12.902;2023-03-18T00:42:54;97608.00;;;7.20
20848;BMP180;10584;50.854;12.902;2023-03-18T00:48:28;97616.00;;;7.30
20848;BMP180;10584;50.854;12.902;2023-03-18T00:53:54;97607.00;;;7.20
20848;BMP180;10584;50.854;12.902;2023-03-18T00:59:16;97608.00;;;7.10
20848;BMP180;10584;50.854;12.902;2023-03-18T01:04:38;97607.00;;;7.20
20848;BMP180;10584;50.854;12.902;2023-03-18T01:10:00;97598.00;;;7.10
20848;BMP180;10584;50.854;12.902;2023-03-18T01:15:23;97605.00;;;7.10
20848;BMP180;10584;50.854;12.902;2023-03-18T01:20:45;97610.00;;;7.10
20848;BMP180;10584;50.854;12.902;2023-03-18T01:26:09;97615.00;;;7.00
20848;BMP180;10584;50.854;12.902;2023-03-18T01:31:34;97618.00;;;7.00
20848;BMP180;10584;50.854;12.902;2023-03-18T01:37:00;97622.00;;;7.00
20848;BMP180;10584;50.854;12.902;2023-03-18T01:42:28;97623.00;;;6.80
20848;BMP180;10584;50.854;12.902;2023-03-18T01:47:50;97627.00;;;6.80
20848;BMP180;10584;50.854;12.902;2023-03-18T01:53:15;97633.00;;;6.70
20848;BMP180;10584;50.854;12.902;2023-03-18T01:58:43;97633.00;;;6.70
20848;BMP180;10584;50.854;12.902;2023-03-18T02:04:08;97630.00;;;6.60
20848;BMP180;10584;50.854;12.902;2023-03-18T02:09:33;97636.00;;;6.60
20848;BMP180;10584;50.854;12.902;2023-03-18T02:14:58;97634.00;;;6.60
20848;BMP180;10584;50.854;12.902;2023-03-18T02:20:56;97641.00;;;6.70
20848;BMP180;10584;50.854;12.902;2023-03-18T02:32:03;97640.00;;;6.70
20848;BMP180;10584;50.854;12.902;2023-03-18T02:37:26;97631.00;;;6.70
20848;BMP180;10584;50.854;12.902;2023-03-18T02:42:49;97637.00;;;6.60
20848;BMP180;10584;50.854;12.902;2023-03-18T02:48:15;97646.00;;;6.70
20848;BMP180;10584;50.854;12.902;2023-03-18T02:53:38;97647.00;;;6.60
20848;BMP180;10584;50.854;12.902;2023-03-18T02:59:00;97653.00;;;6.60
20848;BMP180;10584;50.854;12.902;2023-03-18T03:04:23;97657.00;;;6.50
20848;BMP180;10584;50.854;12.902;2023-03-18T03:09:46;97661.00;;;6.40
20848;BMP180;10584;50.854;12.902;2023-03-18T03:15:09;97668.00;;;6.40
20848;BMP180;10584;50.854;12.902;2023-03-18T03:20:37;97676.00;;;6.40
20848;BMP180;10584;50.854;12.902;2023-03-18T03:25:59;97672.00;;;6.30
20848;BMP180;10584;50.854;12.902;2023-03-18T03:31:20;97685.00;;;6.30
20848;BMP180;10584;50.854;12.902;2023-03-18T03:36:42;97685.00;;;6.30
20848;BMP180;10584;50.854;12.902;2023-03-18T03:42:05;97684.00;;;6.20
20848;BMP180;10584;50.854;12.902;2023-03-18T03:47:27;97691.00;;;6.20
20848;BMP180;10584;50.854;12.902;2023-03-18T03:52:49;97690.00;;;6.20
20848;BMP180;10584;50.854;12.902;2023-03-18T03:58:11;97690.00;;;6.10
20848;BMP180;10584;50.854;12.902;2023-03-18T04:03:34;97703.00;;;6.20
20848;BMP180;10584;50.854;12.902;2023-03-18T04:08:59;97701.00;;;6.10
20848;BMP180;10584;50.854;12.902;2023-03-18T04:14:21;97701.00;;;6.10
20848;BMP180;10584;50.854;12.902;2023-03-18T04:19:43;97704.00;;;6.10
20848;BMP180;10584;50.854;12.902;2023-03-18T04:25:08;97697.00;;;6.00
20848;BMP180;10584;50.854;12.902;2023-03-18T04:30:33;97710.00;;;6.10
20848;BMP180;10584;50.854;12.902;2023-03-18T04:36:01;97712.00;;;6.00
20848;BMP180;10584;50.854;12.902;2023-03-18T04:41:24;97713.00;;;5.80
20848;BMP180;10584;50.854;12.902;2023-03-18T04:46:48;97715.00;;;5.80
20848;BMP180;10584;50.854;12.902;2023-03-18T04:52:11;97719.00;;;5.90
20848;BMP180;10584;50.854;12.902;2023-03-18T04:57:34;97707.00;;;5.80
20848;BMP180;10584;50.854;12.902;2023-03-18T05:03:01;97712.00;;;5.80
20848;BMP180;10584;50.854;12.902;2023-03-18T05:08:23;97712.00;;;5.80
20848;BMP180;10584;50.854;12.902;2023-03-18T05:13:46;97716.00;;;5.90
20848;BMP180;10584;50.854;12.902;2023-03-18T05:19:10;97720.00;;;5.90
20848;BMP180;10584;50.854;12.902;2023-03-18T05:24:40;97712.00;;;5.80
20848;BMP180;10584;50.854;12.902;2023-03-18T05:30:07;97718.00;;;5.90
20848;BMP180;10584;50.854;12.902;2023-03-18T05:35:38;97723.00;;;5.90
20848;BMP180;10584;50.854;12.902;2023-03-18T05:41:00;97736.00;;;6.10
20848;BMP180;10584;50.854;12.902;2023-03-18T05:46:29;97730.00;;;6.10
20848;BMP180;10584;50.854;12.902;2023-03-18T05:52:09;97743.00;;;6.10
20848;BMP180;10584;50.854;12.902;2023-03-18T05:57:36;97739.00;;;6.10
20848;BMP180;10584;50.854;12.902;2023-03-18T06:03:02;97744.00;;;6.20
20848;BMP180;10584;50.854;12.902;2023-03-18T06:08:23;97744.00;;;6.20
20848;BMP180;10584;50.854;12.902;2023-03-18T06:13:46;97745.00;;;6.40
20848;BMP180;10584;50.854;12.902;2023-03-18T06:19:08;97737.00;;;6.50
20848;BMP180;10584;50.854;12.902;2023-03-18T06:24:32;97750.00;;;6.70
20848;BMP180;10584;50.854;12.902;2023-03-18T06:29:54;97732.00;;;6.80
20848;BMP180;10584;50.854;12.902;2023-03-18T06:35:16;97733.00;;;7.00
20848;BMP180;10584;50.854;12.902;2023-03-18T06:40:39;97745.00;;;7.20
20848;BMP180;10584;50.854;12.902;2023-03-18T06:46:02;97750.00;;;7.60
20848;BMP180;10584;50.854;12.902;2023-03-18T06:51:24;97742.00;;;7.80
20848;BMP180;10584;50.854;12.902;2023-03-18T06:56:46;97748.00;;;8.10
20848;BMP180;10584;50.854;12.902;2023-03-18T07:02:11;97739.00;;;8.30
20848;BMP180;10584;50.854;12.902;2023-03-18T07:07:33;97747.00;;;8.50
20848;BMP180;10584;50.854;12.902;2023-03-18T07:12:55;97750.00;;;8.80
20848;BMP180;10584;50.854;12.902;2023-03-18T07:18:17;97757.00;;;9.10
20848;BMP180;10584;50.854;12.902;2023-03-18T07:23:40;97751.00;;;9.30
20848;BMP180;10584;50.854;12.902;2023-03-18T07:29:02;97760.00;;;9.50
20848;BMP180;10584;50.854;12.902;2023-03-18T07:34:24;97756.00;;;9.70
20848;BMP180;10584;50.854;12.902;2023-03-18T07:39:46;97756.00;;;9.90
20848;BMP180;10584;50.854;12.902;2023-03-18T07:45:09;97771.00;;;10.10
20848;BMP180;10584;50.854;12.902;2023-03-18T07:50:35;97776.00;;;10.30
20848;BMP180;10584;50.854;12.902;2023-03-18T07:55:56;97780.00;;;10.50
20848;BMP180;10584;50.854;12.902;2023-03-18T08:01:18;97785.00;;;10.70
20848;BMP180;10584;50.854;12.902;2023-03-18T08:06:40;97789.00;;;11.00
20848;BMP180;10584;50.854;12.902;2023-03-18T08:12:01;97795.00;;;11.20
20848;BMP180;10584;50.854;12.902;2023-03-18T08:17:23;97797.00;;;11.40
20848;BMP180;10584;50.854;12.902;2023-03-18T08:22:45;97797.00;;;11.70
20848;BMP180;10584;50.854;12.902;2023-03-18T08:28:06;97799.00;;;12.00
20848;BMP180;10584;50.854;12.902;2023-03-18T08:33:28;97799.00;;;12.20
20848;BMP180;10584;50.854;12.902;2023-03-18T08:38:50;97808.00;;;12.50
20848;BMP180;10584;50.854;12.902;2023-03-18T08:44:12;97806.00;;;12.70
20848;BMP180;10584;50.854;12.902;2023-03-18T08:49:33;97812.00;;;13.20
20848;BMP180;10584;50.854;12.902;2023-03-18T08:54:55;97819.00;;;13.40
20848;BMP180;10584;50.854;12.902;2023-03-18T09:00:18;97818.00;;;13.70
20848;BMP180;10584;50.854;12.902;2023-03-18T09:05:41;97817.00;;;14.10
20848;BMP180;10584;50.854;12.902;2023-03-18T09:11:03;97815.00;;;14.40
20848;BMP180;10584;50.854;12.902;2023-03-18T09:16:25;97823.00;;;14.70
20848;BMP180;10584;50.854;12.902;2023-03-18T09:21:46;97827.00;;;15.10
20848;BMP180;10584;50.854;12.902;2023-03-18T09:27:08;97825.00;;;15.40
20848;BMP180;10584;50.854;12.902;2023-03-18T09:32:30;97824.00;;;15.70
20848;BMP180;10584;50.854;12.902;2023-03-18T09:37:52;97812.00;;;15.80
20848;BMP180;10584;50.854;12.902;2023-03-18T10:00:36;97834.00;;;16.40
20848;BMP180;10584;50.854;12.902;2023-03-18T10:06:05;97843.00;;;16.40
20848;BMP180;10584;50.854;12.902;2023-03-18T10:22:46;97848.00;;;16.30
20848;BMP180;10584;50.854;12.902;2023-03-18T10:39:23;97849.00;;;16.70
20848;BMP180;10584;50.854;12.902;2023-03-18T10:44:46;97849.00;;;16.90
20848;BMP180;10584;50.854;12.902;2023-03-18T10:50:29;97849.00;;;17.10
20848;BMP180;10584;50.854;12.902;2023-03-18T10:56:12;97847.00;;;17.00
20848;BMP180;10584;50.854;12.902;2023-03-18T11:01:36;97855.00;;;17.00
20848;BMP180;10584;50.854;12.902;2023-03-18T11:07:01;97848.00;;;17.20
20848;BMP180;10584;50.854;12.902;2023-03-18T11:12:26;97852.00;;;17.30
20848;BMP180;10584;50.854;12.902;2023-03-18T11:17:52;97854.00;;;17.20
20848;BMP180;10584;50.854;12.902;2023-03-18T11:23:39;97844.00;;;17.20
20848;BMP180;10584;50.854;12.902;2023-03-18T11:29:22;97841.00;;;17.30
20848;BMP180;10584;50.854;12.902;2023-03-18T11:34:57;97845.00;;;17.40
20848;BMP180;10584;50.854;12.902;2023-03-18T11:40:25;97844.00;;;17.40
20848;BMP180;10584;50.854;12.902;2023-03-18T11:45:59;97844.00;;;17.50
20848;BMP180;10584;50.854;12.902;2023-03-18T11:57:22;97839.00;;;17.50
20848;BMP180;10584;50.854;12.902;2023-03-18T12:19:22;97859.00;;;16.70
20848;BMP180;10584;50.854;12.902;2023-03-18T12:36:17;97842.00;;;16.80
20848;BMP180;10584;50.854;12.902;2023-03-18T12:47:47;97839.00;;;17.00
20848;BMP180;10584;50.854;12.902;2023-03-18T12:53:29;97830.00;;;17.20
20848;BMP180;10584;50.854;12.902;2023-03-18T12:59:07;97826.00;;;17.30
20848;BMP180;10584;50.854;12.902;2023-03-18T13:04:31;97825.00;;;17.40
20848;BMP180;10584;50.854;12.902;2023-03-18T13:10:24;97816.00;;;17.60
20848;BMP180;10584;50.854;12.902;2023-03-18T13:15:50;97819.00;;;18.00
20848;BMP180;10584;50.854;12.902;2023-03-18T13:21:21;97804.00;;;18.50
20848;BMP180;10584;50.854;12.902;2023-03-18T13:27:04;97813.00;;;18.60
20848;BMP180;10584;50.854;12.902;2023-03-18T13:38:39;97809.00;;;19.00
20848;BMP180;10584;50.854;12.902;2023-03-18T13:44:17;97799.00;;;19.30
20848;BMP180;10584;50.854;12.902;2023-03-18T13:49:43;97795.00;;;19.30
20848;BMP180;10584;50.854;12.902;2023-03-18T14:00:37;97800.00;;;19.70
20848;BMP180;10584;50.854;12.902;2023-03-18T14:11:44;97783.00;;;19.50
20848;BMP180;10584;50.854;12.902;2023-03-18T14:18:01;97781.00;;;19.90
20848;BMP180;10584;50.854;12.902;2023-03-18T14:23:18;97776.00;;;19.70
20848;BMP180;10584;50.854;12.902;2023-03-18T14:34:32;97781.00;;;19.30
20848;BMP180;10584;50.854;12.902;2023-03-18T14:39:59;97779.00;;;19.40
20848;BMP180;10584;50.854;12.902;2023-03-18T14:45:31;97779.00;;;19.50
20848;BMP180;10584;50.854;12.902;2023-03-18T14:50:56;97775.00;;;19.60
20848;BMP180;10584;50.854;12.902;2023-03-18T14:56:27;97773.00;;;19.30
20848;BMP180;10584;50.854;12.902;2023-03-18T15:01:49;97782.00;;;19.60
20848;BMP180;10584;50.854;12.902;2023-03-18T15:07:13;97779.00;;;19.50
20848;BMP180;10584;50.854;12.902;2023-03-18T15:12:35;97770.00;;;19.50
20848;BMP180;10584;50.854;12.902;2023-03-18T15:18:00;97772.00;;;19.70
20848;BMP180;10584;50.854;12.902;2023-03-18T15:29:01;97775.00;;;19.80
20848;BMP180;10584;50.854;12.902;2023-03-18T15:34:29;97777.00;;;19.80
20848;BMP180;10584;50.854;12.902;2023-03-18T15:39:51;97769.00;;;19.90
20848;BMP180;10584;50.854;12.902;2023-03-18T15:45:25;97769.00;;;19.80
20848;BMP180;10584;50.854;12.902;2023-03-18T15:50:55;97774.00;;;19.90
20848;BMP180;10584;50.854;12.902;2023-03-18T15:56:27;97774.00;;;19.80
20848;BMP180;10584;50.854;12.902;2023-03-18T16:01:54;97777.00;;;19.70
20848;BMP180;10584;50.854;12.902;2023-03-18T16:07:20;97793.00;;;19.60
20848;BMP180;10584;50.854;12.902;2023-03-18T16:12:54;97794.00;;;19.60
20848;BMP180;10584;50.854;12.902;2023-03-18T16:18:17;97789.00;;;19.50
20848;BMP180;10584;50.854;12.902;2023-03-18T16:23:38;97803.00;;;19.50
20848;BMP180;10584;50.854;12.902;2023-03-18T16:29:01;97804.00;;;19.00
20848;BMP180;10584;50.854;12.902;2023-03-18T16:34:23;97816.00;;;18.60
20848;BMP180;10584;50.854;12.902;2023-03-18T16:39:45;97811.00;;;17.50
20848;BMP180;10584;50.854;12.902;2023-03-18T16:45:12;97818.00;;;17.00
20848;BMP180;10584;50.854;12.902;2023-03-18T16:50:36;97817.00;;;16.70
20848;BMP180;10584;50.854;12.902;2023-03-18T16:56:03;97820.00;;;16.30
20848;BMP180;10584;50.854;12.902;2023-03-18T17:01:30;97824.00;;;16.00
20848;BMP180;10584;50.854;12.902;2023-03-18T17:06:53;97831.00;;;15.60
20848;BMP180;10584;50.854;12.902;2023-03-18T17:12:15;97838.00;;;15.40
20848;BMP180;10584;50.854;12.902;2023-03-18T17:17:37;97844.00;;;14.70
20848;BMP180;10584;50.854;12.902;2023-03-18T17:22:59;97843.00;;;14.50
20848;BMP180;10584;50.854;12.902;2023-03-18T17:28:36;97848.00;;;14.40
20848;BMP180;10584;50.854;12.902;2023-03-18T17:33:58;97859.00;;;14.00
20848;BMP180;10584;50.854;12.902;2023-03-18T17:39:20;97863.00;;;14.10
20848;BMP180;10584;50.854;12.902;2023-03-18T17:44:41;97867.00;;;13.90
20848;BMP180;10584;50.854;12.902;2023-03-18T17:50:03;97856.00;;;13.20
20848;BMP180;10584;50.854;12.902;2023-03-18T17:55:25;97844.00;;;13.10
20848;BMP180;10584;50.854;12.902;2023-03-18T18:00:48;97859.00;;;12.80
20848;BMP180;10584;50.854;12.902;2023-03-18T18:06:17;97856.00;;;12.60
20848;BMP180;10584;50.854;12.902;2023-03-18T18:11:41;97853.00;;;12.40
20848;BMP180;10584;50.854;12.902;2023-03-18T18:17:12;97856.00;;;12.10
20848;BMP180;10584;50.854;12.902;2023-03-18T18:22:45;97852.00;;;11.80
20848;BMP180;10584;50.854;12.902;2023-03-18T18:28:20;97849.00;;;11.70
20848;BMP180;10584;50.854;12.902;2023-03-18T18:33:42;97852.00;;;11.60
20848;BMP180;10584;50.854;12.902;2023-03-18T18:39:05;97857.00;;;11.50
20848;BMP180;10584;50.854;12.902;2023-03-18T18:44:28;97857.00;;;11.20
20848;BMP180;10584;50.854;12.902;2023-03-18T18:49:49;97865.00;;;11.10
20848;BMP180;10584;50.854;12.902;2023-03-18T18:55:11;97856.00;;;10.80
20848;BMP180;10584;50.854;12.902;2023-03-18T19:00:33;97857.00;;;10.60
20848;BMP180;10584;50.854;12.902;2023-03-18T19:05:54;97863.00;;;10.50
20848;BMP180;10584;50.854;12.902;2023-03-18T19:11:16;97879.00;;;10.30
20848;BMP180;10584;50.854;12.902;2023-03-18T19:16:38;97865.00;;;10.20
20848;BMP180;10584;50.854;12.902;2023-03-18T19:22:00;97867.00;;;10.20
20848;BMP180;10584;50.854;12.902;2023-03-18T19:27:25;97866.00;;;10.10
20848;BMP180;10584;50.854;12.902;2023-03-18T19:32:47;97853.00;;;10.10
20848;BMP180;10584;50.854;12.902;2023-03-18T19:38:16;97869.00;;;10.00
20848;BMP180;10584;50.854;12.902;2023-03-18T19:43:39;97862.00;;;10.00
20848;BMP180;10584;50.854;12.902;2023-03-18T19:49:11;97866.00;;;9.90
20848;BMP180;10584;50.854;12.902;2023-03-18T19:54:34;97868.00;;;9.80
20848;BMP180;10584;50.854;12.902;2023-03-18T19:59:58;97868.00;;;9.80
20848;BMP180;10584;50.854;12.902;2023-03-18T20:05:22;97874.00;;;9.70
20848;BMP180;10584;50.854;12.902;2023-03-18T20:10:50;97870.00;;;9.60
20848;BMP180;10584;50.854;12.902;2023-03-18T20:16:16;97884.00;;;9.60
20848;BMP180;10584;50.854;12.902;2023-03-18T20:21:38;97889.00;;;9.60
20848;BMP180;10584;50.854;12.902;2023-03-18T20:27:00;97887.00;;;9.50
20848;BMP180;10584;50.854;12.902;2023-03-18T20:32:21;97893.00;;;9.40
20848;BMP180;10584;50.854;12.902;2023-03-18T20:37:43;97886.00;;;9.40
20848;BMP180;10584;50.854;12.902;2023-03-18T20:43:07;97877.00;;;9.40
20848;BMP180;10584;50.854;12.902;2023-03-18T20:48:30;97881.00;;;9.40
20848;BMP180;10584;50.854;12.902;2023-03-18T20:53:52;97879.00;;;9.20
20848;BMP180;10584;50.854;12.902;2023-03-18T20:59:15;97874.00;;;9.10
20848;BMP180;10584;50.854;12.902;2023-03-18T21:04:37;97885.00;;;9.10
20848;BMP180;10584;50.854;12.902;2023-03-18T21:09:59;97889.00;;;9.00
20848;BMP180;10584;50.854;12.902;2023-03-18T21:15:27;97887.00;;;9.00
20848;BMP180;10584;50.854;12.902;2023-03-18T21:20:49;97888.00;;;9.00
20848;BMP180;10584;50.854;12.902;2023-03-18T21:26:11;97887.00;;;9.00
20848;BMP180;10584;50.854;12.902;2023-03-18T21:31:33;97890.00;;;8.80
20848;BMP180;10584;50.854;12.902;2023-03-18T21:36:55;97884.00;;;8.90
20848;BMP180;10584;50.854;12.902;2023-03-18T21:42:26;97892.00;;;8.90
20848;BMP180;10584;50.854;12.902;2023-03-18T21:47:48;97878.00;;;8.80
20848;BMP180;10584;50.854;12.902;2023-03-18T21:53:18;97872.00;;;8.80
20848;BMP180;10584;50.854;12.902;2023-03-18T21:58:40;97872.00;;;8.70
20848;BMP180;10584;50.854;12.902;2023-03-18T22:04:01;97876.00;;;8.80
20848;BMP180;10584;50.854;12.902;2023-03-18T22:09:24;97874.00;;;8.80
20848;BMP180;10584;50.854;12.902;2023-03-18T22:14:46;97880.00;;;8.80
20848;BMP180;10584;50.854;12.902;2023-03-18T22:20:09;97883.00;;;8.80
20848;BMP180;10584;50.854;12.902;2023-03-18T22:25:34;97883.00;;;8.90
20848;BMP180;10584;50.854;12.902;2023-03-18T22:31:00;97874.00;;;8.90
20848;BMP180;10584;50.854;12.902;2023-03-18T22:36:23;97871.00;;;8.90
20848;BMP180;10584;50.854;12.902;2023-03-18T22:41:48;97872.00;;;9.00
20848;BMP180;10584;50.854;12.902;2023-03-18T22:47:23;97875.00;;;9.00
20848;BMP180;10584;50.854;12.902;2023-03-18T22:52:47;97879.00;;;8.90
20848;BMP180;10584;50.854;12.902;2023-03-18T22:58:28;97879.00;;;8.90
20848;BMP180;10584;50.854;12.902;2023-03-18T23:03:50;97874.00;;;8.90
20848;BMP180;10584;50.854;12.902;2023-03-18T23:09:11;97876.00;;;8.90
20848;BMP180;10584;50.854;12.902;2023-03-18T23:14:33;97871.00;;;8.90
20848;BMP180;10584;50.854;12.902;2023-03-18T23:19:55;97876.00;;;8.80
20848;BMP180;10584;50.854;12.902;2023-03-18T23:25:17;97887.00;;;8.90
20848;BMP180;10584;50.854;12.902;2023-03-18T23:30:40;97875.00;;;8.90
20848;BMP180;10584;50.854;12.902;2023-03-18T23:36:03;97883.00;;;8.70
20848;BMP180;10584;50.854;12.902;2023-03-18T23:41:24;97884.00;;;8.70
20848;BMP180;10584;50.854;12.902;2023-03-18T23:46:47;97887.00;;;8.80
20848;BMP180;10584;50.854;12.902;2023-03-18T23:52:12;97898.00;;;8.70
20848;BMP180;10584;50.854;12.902;2023-03-18T23:57:34;97882.00;;;8.70
